sensor_id;sensor_type;location;lat;lon;timestamp;P1;durP1;ratioP1;P2;durP2;ratioP2
42514;SDS011;28144;49.920;18.730;2022-12-31T00:01:22;192.70;;;80.30;;
42514;SDS011;28144;49.920;18.730;2022-12-31T00:03:49;218.60;;;87.30;;
42514;SDS011;28144;49.920;18.730;2022-12-31T00:06:17;197.32;;;87.18;;
42514;SDS011;28144;49.920;18.730;2022-12-31T00:08:52;204.25;;;84.70;;
42514;SDS011;28144;49.920;18.730;2022-12-31T00:11:20;206.97;;;83.30;;
42514;SDS011;28144;49.920;18.730;2022-12-31T00:13:46;173.18;;;73.55;;
42514;SDS011;28144;49.920;18.730;2022-12-31T00:16:20;185.38;;;77.35;;
42514;SDS011;28144;49.920;18.730;2022-12-31T00:18:50;166.60;;;70.23;;
42514;SDS011;28144;49.920;18.730;2022-12-31T00:21:19;167.00;;;70.77;;
42514;SDS011;28144;49.920;18.730;2022-12-31T00:23:46;178.70;;;74.55;;
42514;SDS011;28144;49.920;18.730;2022-12-31T00:26:13;172.18;;;74.43;;
42514;SDS011;28144;49.920;18.730;2022-12-31T00:28:41;174.57;;;75.23;;
42514;SDS011;28144;49.920;18.730;2022-12-31T00:31:09;173.52;;;75.93;;
42514;SDS011;28144;49.920;18.730;2022-12-31T00:33:42;149.27;;;65.23;;
42514;SDS011;28144;49.920;18.730;2022-12-31T00:36:16;137.13;;;61.85;;
42514;SDS011;28144;49.920;18.730;2022-12-31T00:38:46;122.80;;;54.60;;
42514;SDS011;28144;49.920;18.730;2022-12-31T00:41:13;138.43;;;60.23;;
42514;SDS011;28144;49.920;18.730;2022-12-31T00:43:40;136.75;;;60.05;;
42514;SDS011;28144;49.920;18.730;2022-12-31T00:46:06;130.55;;;58.13;;
42514;SDS011;28144;49.920;18.730;2022-12-31T00:48:32;126.47;;;55.67;;
42514;SDS011;28144;49.920;18.730;2022-12-31T00:50:59;121.10;;;54.30;;
42514;SDS011;28144;49.920;18.730;2022-12-31T00:53:26;112.38;;;50.17;;
42514;SDS011;28144;49.920;18.730;2022-12-31T00:55:57;111.32;;;50.30;;
42514;SDS011;28144;49.920;18.730;2022-12-31T00:58:26;99.13;;;45.93;;
42514;SDS011;28144;49.920;18.730;2022-12-31T01:00:52;101.43;;;49.28;;
42514;SDS011;28144;49.920;18.730;2022-12-31T01:03:18;100.70;;;48.03;;
42514;SDS011;28144;49.920;18.730;2022-12-31T01:05:44;91.70;;;43.83;;
42514;SDS011;28144;49.920;18.730;2022-12-31T01:08:10;91.67;;;41.90;;
42514;SDS011;28144;49.920;18.730;2022-12-31T01:10:36;86.40;;;40.00;;
42514;SDS011;28144;49.920;18.730;2022-12-31T01:13:20;73.27;;;36.53;;
42514;SDS011;28144;49.920;18.730;2022-12-31T01:15:46;76.03;;;36.70;;
42514;SDS011;28144;49.920;18.730;2022-12-31T01:18:12;68.90;;;35.37;;
42514;SDS011;28144;49.920;18.730;2022-12-31T01:20:39;67.05;;;33.20;;
42514;SDS011;28144;49.920;18.730;2022-12-31T01:23:06;66.10;;;34.43;;
42514;SDS011;28144;49.920;18.730;2022-12-31T01:28:00;59.40;;;29.23;;
42514;SDS011;28144;49.920;18.730;2022-12-31T01:30:26;68.57;;;30.40;;
42514;SDS011;28144;49.920;18.730;2022-12-31T01:32:52;52.60;;;26.73;;
42514;SDS011;28144;49.920;18.730;2022-12-31T01:35:18;49.17;;;24.37;;
42514;SDS011;28144;49.920;18.730;2022-12-31T01:37:44;46.73;;;25.30;;
42514;SDS011;28144;49.920;18.730;2022-12-31T01:40:10;50.23;;;25.07;;
42514;SDS011;28144;49.920;18.730;2022-12-31T01:42:35;42.03;;;22.97;;
42514;SDS011;28144;49.920;18.730;2022-12-31T01:48:41;39.33;;;21.63;;
42514;SDS011;28144;49.920;18.730;2022-12-31T01:51:08;42.63;;;22.45;;
42514;SDS011;28144;49.920;18.730;2022-12-31T01:53:34;41.05;;;22.27;;
42514;SDS011;28144;49.920;18.730;2022-12-31T01:56:00;42.33;;;21.90;;
42514;SDS011;28144;49.920;18.730;2022-12-31T01:58:33;42.45;;;23.75;;
42514;SDS011;28144;49.920;18.730;2022-12-31T02:01:04;36.70;;;20.97;;
42514;SDS011;28144;49.920;18.730;2022-12-31T02:03:32;37.73;;;19.60;;
42514;SDS011;28144;49.920;18.730;2022-12-31T02:08:30;42.67;;;22.27;;
42514;SDS011;28144;49.920;18.730;2022-12-31T02:10:56;40.60;;;23.10;;
42514;SDS011;28144;49.920;18.730;2022-12-31T02:13:21;44.83;;;20.73;;
42514;SDS011;28144;49.920;18.730;2022-12-31T02:18:52;39.23;;;20.23;;
42514;SDS011;28144;49.920;18.730;2022-12-31T02:21:35;35.27;;;18.80;;
42514;SDS011;28144;49.920;18.730;2022-12-31T02:24:10;38.90;;;20.53;;
42514;SDS011;28144;49.920;18.730;2022-12-31T02:26:52;41.37;;;21.50;;
42514;SDS011;28144;49.920;18.730;2022-12-31T02:32:04;43.47;;;21.10;;
42514;SDS011;28144;49.920;18.730;2022-12-31T02:34:36;40.57;;;21.83;;
42514;SDS011;28144;49.920;18.730;2022-12-31T02:37:09;38.83;;;20.40;;
42514;SDS011;28144;49.920;18.730;2022-12-31T02:39:36;36.50;;;20.57;;
42514;SDS011;28144;49.920;18.730;2022-12-31T02:42:03;33.80;;;19.37;;
42514;SDS011;28144;49.920;18.730;2022-12-31T02:44:29;39.37;;;20.43;;
42514;SDS011;28144;49.920;18.730;2022-12-31T02:55:15;41.77;;;21.27;;
42514;SDS011;28144;49.920;18.730;2022-12-31T03:00:30;40.93;;;21.60;;
42514;SDS011;28144;49.920;18.730;2022-12-31T03:03:16;35.33;;;19.77;;
42514;SDS011;28144;49.920;18.730;2022-12-31T03:05:43;39.17;;;20.97;;
42514;SDS011;28144;49.920;18.730;2022-12-31T03:08:10;37.97;;;21.48;;
42514;SDS011;28144;49.920;18.730;2022-12-31T03:10:35;38.90;;;21.87;;
42514;SDS011;28144;49.920;18.730;2022-12-31T03:13:02;43.50;;;22.43;;
42514;SDS011;28144;49.920;18.730;2022-12-31T03:15:31;40.67;;;22.30;;
42514;SDS011;28144;49.920;18.730;2022-12-31T03:20:26;39.60;;;21.07;;
42514;SDS011;28144;49.920;18.730;2022-12-31T03:23:13;35.00;;;19.27;;
42514;SDS011;28144;49.920;18.730;2022-12-31T03:25:42;37.40;;;19.63;;
42514;SDS011;28144;49.920;18.730;2022-12-31T03:28:10;33.13;;;18.67;;
42514;SDS011;28144;49.920;18.730;2022-12-31T03:30:41;34.90;;;18.67;;
42514;SDS011;28144;49.920;18.730;2022-12-31T03:33:08;33.83;;;18.50;;
42514;SDS011;28144;49.920;18.730;2022-12-31T03:35:34;31.57;;;16.43;;
42514;SDS011;28144;49.920;18.730;2022-12-31T03:38:02;29.47;;;16.70;;
42514;SDS011;28144;49.920;18.730;2022-12-31T03:40:28;31.75;;;16.17;;
42514;SDS011;28144;49.920;18.730;2022-12-31T03:42:55;32.43;;;15.93;;
42514;SDS011;28144;49.920;18.730;2022-12-31T03:45:21;30.83;;;16.67;;
42514;SDS011;28144;49.920;18.730;2022-12-31T03:47:47;32.33;;;16.40;;
42514;SDS011;28144;49.920;18.730;2022-12-31T03:50:14;32.30;;;17.00;;
42514;SDS011;28144;49.920;18.730;2022-12-31T03:52:41;31.70;;;15.73;;
42514;SDS011;28144;49.920;18.730;2022-12-31T03:55:07;31.97;;;15.60;;
42514;SDS011;28144;49.920;18.730;2022-12-31T03:57:34;33.60;;;16.57;;
42514;SDS011;28144;49.920;18.730;2022-12-31T04:00:00;31.77;;;16.10;;
42514;SDS011;28144;49.920;18.730;2022-12-31T04:02:26;34.53;;;17.48;;
42514;SDS011;28144;49.920;18.730;2022-12-31T04:04:52;34.43;;;19.57;;
42514;SDS011;28144;49.920;18.730;2022-12-31T04:07:18;30.90;;;17.70;;
42514;SDS011;28144;49.920;18.730;2022-12-31T04:09:44;33.67;;;19.10;;
42514;SDS011;28144;49.920;18.730;2022-12-31T04:12:10;30.07;;;17.77;;
42514;SDS011;28144;49.920;18.730;2022-12-31T04:14:35;30.07;;;17.47;;
42514;SDS011;28144;49.920;18.730;2022-12-31T04:17:01;29.47;;;15.83;;
42514;SDS011;28144;49.920;18.730;2022-12-31T04:19:27;30.43;;;16.77;;
42514;SDS011;28144;49.920;18.730;2022-12-31T04:21:52;32.90;;;16.90;;
42514;SDS011;28144;49.920;18.730;2022-12-31T04:24:18;30.73;;;16.33;;
42514;SDS011;28144;49.920;18.730;2022-12-31T04:26:44;31.03;;;16.03;;
42514;SDS011;28144;49.920;18.730;2022-12-31T04:29:10;26.60;;;16.07;;
42514;SDS011;28144;49.920;18.730;2022-12-31T04:31:36;31.10;;;16.70;;
42514;SDS011;28144;49.920;18.730;2022-12-31T04:34:02;26.77;;;16.17;;
42514;SDS011;28144;49.920;18.730;2022-12-31T04:36:28;30.70;;;16.57;;
42514;SDS011;28144;49.920;18.730;2022-12-31T04:38:54;25.70;;;14.80;;
42514;SDS011;28144;49.920;18.730;2022-12-31T04:41:20;26.15;;;14.73;;
42514;SDS011;28144;49.920;18.730;2022-12-31T04:43:50;23.77;;;14.43;;
42514;SDS011;28144;49.920;18.730;2022-12-31T04:46:18;27.17;;;14.50;;
42514;SDS011;28144;49.920;18.730;2022-12-31T04:48:46;22.83;;;13.37;;
42514;SDS011;28144;49.920;18.730;2022-12-31T04:51:12;22.58;;;13.10;;
42514;SDS011;28144;49.920;18.730;2022-12-31T04:56:05;21.75;;;13.43;;
42514;SDS011;28144;49.920;18.730;2022-12-31T04:58:36;20.73;;;12.23;;
42514;SDS011;28144;49.920;18.730;2022-12-31T05:01:03;21.20;;;13.03;;
42514;SDS011;28144;49.920;18.730;2022-12-31T05:03:32;23.63;;;13.93;;
42514;SDS011;28144;49.920;18.730;2022-12-31T05:06:06;22.88;;;13.05;;
42514;SDS011;28144;49.920;18.730;2022-12-31T05:08:38;22.20;;;12.23;;
42514;SDS011;28144;49.920;18.730;2022-12-31T05:11:04;24.23;;;12.20;;
42514;SDS011;28144;49.920;18.730;2022-12-31T05:13:31;16.02;;;9.82;;
42514;SDS011;28144;49.920;18.730;2022-12-31T05:15:58;15.93;;;9.10;;
42514;SDS011;28144;49.920;18.730;2022-12-31T05:18:28;16.27;;;9.03;;
42514;SDS011;28144;49.920;18.730;2022-12-31T05:20:57;16.87;;;8.97;;
42514;SDS011;28144;49.920;18.730;2022-12-31T05:23:23;17.08;;;9.40;;
42514;SDS011;28144;49.920;18.730;2022-12-31T05:25:49;19.77;;;9.68;;
42514;SDS011;28144;49.920;18.730;2022-12-31T05:28:17;16.57;;;11.63;;
42514;SDS011;28144;49.920;18.730;2022-12-31T05:30:44;18.45;;;11.20;;
42514;SDS011;28144;49.920;18.730;2022-12-31T05:33:12;18.43;;;10.63;;
42514;SDS011;28144;49.920;18.730;2022-12-31T05:35:38;17.60;;;10.07;;
42514;SDS011;28144;49.920;18.730;2022-12-31T05:38:05;20.15;;;10.35;;
42514;SDS011;28144;49.920;18.730;2022-12-31T05:40:31;17.02;;;9.10;;
42514;SDS011;28144;49.920;18.730;2022-12-31T05:42:57;13.40;;;8.07;;
42514;SDS011;28144;49.920;18.730;2022-12-31T05:45:23;12.60;;;7.10;;
42514;SDS011;28144;49.920;18.730;2022-12-31T05:47:50;11.85;;;7.40;;
42514;SDS011;28144;49.920;18.730;2022-12-31T05:50:20;10.87;;;6.43;;
42514;SDS011;28144;49.920;18.730;2022-12-31T05:55:13;8.40;;;6.03;;
42514;SDS011;28144;49.920;18.730;2022-12-31T05:57:42;12.43;;;5.40;;
42514;SDS011;28144;49.920;18.730;2022-12-31T06:00:15;12.32;;;5.80;;
42514;SDS011;28144;49.920;18.730;2022-12-31T06:02:42;8.50;;;5.20;;
42514;SDS011;28144;49.920;18.730;2022-12-31T06:05:08;8.90;;;4.65;;
42514;SDS011;28144;49.920;18.730;2022-12-31T06:07:37;8.30;;;4.77;;
42514;SDS011;28144;49.920;18.730;2022-12-31T06:10:06;7.27;;;4.40;;
42514;SDS011;28144;49.920;18.730;2022-12-31T06:12:33;8.55;;;5.20;;
42514;SDS011;28144;49.920;18.730;2022-12-31T06:17:26;5.82;;;3.47;;
42514;SDS011;28144;49.920;18.730;2022-12-31T06:19:53;4.80;;;3.30;;
42514;SDS011;28144;49.920;18.730;2022-12-31T06:22:19;4.68;;;2.88;;
42514;SDS011;28144;49.920;18.730;2022-12-31T06:24:45;5.47;;;3.53;;
42514;SDS011;28144;49.920;18.730;2022-12-31T06:27:12;3.90;;;2.23;;
42514;SDS011;28144;49.920;18.730;2022-12-31T06:29:38;6.13;;;3.00;;
42514;SDS011;28144;49.920;18.730;2022-12-31T06:32:05;4.78;;;2.40;;
42514;SDS011;28144;49.920;18.730;2022-12-31T06:34:31;4.30;;;2.20;;
42514;SDS011;28144;49.920;18.730;2022-12-31T06:36:57;4.05;;;2.40;;
42514;SDS011;28144;49.920;18.730;2022-12-31T06:39:24;4.40;;;2.55;;
42514;SDS011;28144;49.920;18.730;2022-12-31T06:41:51;5.20;;;2.60;;
42514;SDS011;28144;49.920;18.730;2022-12-31T06:44:17;4.70;;;2.67;;
42514;SDS011;28144;49.920;18.730;2022-12-31T06:46:43;7.05;;;2.50;;
42514;SDS011;28144;49.920;18.730;2022-12-31T06:49:09;3.60;;;2.00;;
42514;SDS011;28144;49.920;18.730;2022-12-31T06:51:36;4.10;;;2.42;;
42514;SDS011;28144;49.920;18.730;2022-12-31T06:54:02;5.83;;;1.90;;
42514;SDS011;28144;49.920;18.730;2022-12-31T06:58:55;2.97;;;1.77;;
42514;SDS011;28144;49.920;18.730;2022-12-31T07:03:57;3.03;;;1.57;;
42514;SDS011;28144;49.920;18.730;2022-12-31T07:06:32;2.57;;;1.70;;
42514;SDS011;28144;49.920;18.730;2022-12-31T07:09:15;2.67;;;1.58;;
42514;SDS011;28144;49.920;18.730;2022-12-31T07:11:59;3.17;;;1.90;;
42514;SDS011;28144;49.920;18.730;2022-12-31T07:22:22;5.10;;;1.50;;
42514;SDS011;28144;49.920;18.730;2022-12-31T07:24:57;2.37;;;1.50;;
42514;SDS011;28144;49.920;18.730;2022-12-31T07:27:28;2.47;;;1.50;;
42514;SDS011;28144;49.920;18.730;2022-12-31T07:30:07;2.27;;;1.13;;
42514;SDS011;28144;49.920;18.730;2022-12-31T07:35:47;1.90;;;1.23;;
42514;SDS011;28144;49.920;18.730;2022-12-31T07:38:39;1.33;;;1.03;;
42514;SDS011;28144;49.920;18.730;2022-12-31T07:49:20;5.03;;;1.90;;
42514;SDS011;28144;49.920;18.730;2022-12-31T07:51:47;3.85;;;1.85;;
42514;SDS011;28144;49.920;18.730;2022-12-31T07:54:13;4.68;;;1.92;;
42514;SDS011;28144;49.920;18.730;2022-12-31T07:56:39;2.90;;;1.43;;
42514;SDS011;28144;49.920;18.730;2022-12-31T08:01:55;3.17;;;1.37;;
42514;SDS011;28144;49.920;18.730;2022-12-31T08:04:28;3.20;;;1.73;;
42514;SDS011;28144;49.920;18.730;2022-12-31T08:07:46;3.40;;;1.60;;
42514;SDS011;28144;49.920;18.730;2022-12-31T08:12:31;2.83;;;1.40;;
42514;SDS011;28144;49.920;18.730;2022-12-31T08:14:59;2.97;;;1.70;;
42514;SDS011;28144;49.920;18.730;2022-12-31T08:17:24;2.23;;;1.50;;
42514;SDS011;28144;49.920;18.730;2022-12-31T08:19:51;3.50;;;1.90;;
42514;SDS011;28144;49.920;18.730;2022-12-31T08:22:38;4.65;;;2.10;;
42514;SDS011;28144;49.920;18.730;2022-12-31T08:25:18;3.90;;;1.70;;
42514;SDS011;28144;49.920;18.730;2022-12-31T08:30:13;4.23;;;2.07;;
42514;SDS011;28144;49.920;18.730;2022-12-31T08:41:47;4.30;;;1.77;;
42514;SDS011;28144;49.920;18.730;2022-12-31T08:49:00;8.03;;;3.07;;
42514;SDS011;28144;49.920;18.730;2022-12-31T08:51:26;7.15;;;3.70;;
42514;SDS011;28144;49.920;18.730;2022-12-31T08:53:52;7.40;;;3.70;;
42514;SDS011;28144;49.920;18.730;2022-12-31T08:56:25;6.17;;;2.90;;
42514;SDS011;28144;49.920;18.730;2022-12-31T08:59:06;8.70;;;3.43;;
42514;SDS011;28144;49.920;18.730;2022-12-31T09:07:06;7.63;;;3.37;;
42514;SDS011;28144;49.920;18.730;2022-12-31T09:12:43;6.23;;;3.20;;
42514;SDS011;28144;49.920;18.730;2022-12-31T09:15:14;5.23;;;3.00;;
42514;SDS011;28144;49.920;18.730;2022-12-31T09:17:55;5.47;;;3.07;;
42514;SDS011;28144;49.920;18.730;2022-12-31T09:20:23;6.70;;;3.30;;
42514;SDS011;28144;49.920;18.730;2022-12-31T09:22:49;5.47;;;3.33;;
42514;SDS011;28144;49.920;18.730;2022-12-31T09:25:15;6.43;;;3.63;;
42514;SDS011;28144;49.920;18.730;2022-12-31T09:30:32;7.33;;;3.43;;
42514;SDS011;28144;49.920;18.730;2022-12-31T09:36:02;10.70;;;4.17;;
42514;SDS011;28144;49.920;18.730;2022-12-31T09:38:47;8.90;;;4.27;;
42514;SDS011;28144;49.920;18.730;2022-12-31T09:41:28;7.97;;;3.77;;
42514;SDS011;28144;49.920;18.730;2022-12-31T09:47:13;5.73;;;3.30;;
42514;SDS011;28144;49.920;18.730;2022-12-31T09:49:57;5.97;;;3.60;;
42514;SDS011;28144;49.920;18.730;2022-12-31T09:56:04;5.63;;;3.28;;
42514;SDS011;28144;49.920;18.730;2022-12-31T10:10:19;4.65;;;2.28;;
42514;SDS011;28144;49.920;18.730;2022-12-31T10:18:37;3.72;;;2.40;;
42514;SDS011;28144;49.920;18.730;2022-12-31T10:24:02;3.05;;;2.20;;
42514;SDS011;28144;49.920;18.730;2022-12-31T10:37:55;2.95;;;1.95;;
42514;SDS011;28144;49.920;18.730;2022-12-31T10:40:47;5.45;;;1.85;;
42514;SDS011;28144;49.920;18.730;2022-12-31T10:52:08;4.30;;;2.60;;
42514;SDS011;28144;49.920;18.730;2022-12-31T11:00:45;4.07;;;2.40;;
42514;SDS011;28144;49.920;18.730;2022-12-31T11:12:49;3.72;;;1.80;;
42514;SDS011;28144;49.920;18.730;2022-12-31T11:25:36;4.63;;;2.25;;
42514;SDS011;28144;49.920;18.730;2022-12-31T11:28:21;4.10;;;2.28;;
42514;SDS011;28144;49.920;18.730;2022-12-31T11:42:02;5.10;;;2.75;;
42514;SDS011;28144;49.920;18.730;2022-12-31T11:51:02;13.75;;;7.32;;
42514;SDS011;28144;49.920;18.730;2022-12-31T11:56:34;5.93;;;2.80;;
42514;SDS011;28144;49.920;18.730;2022-12-31T11:59:06;6.88;;;3.00;;
42514;SDS011;28144;49.920;18.730;2022-12-31T12:04:03;4.75;;;2.88;;
42514;SDS011;28144;49.920;18.730;2022-12-31T12:06:30;5.23;;;2.80;;
42514;SDS011;28144;49.920;18.730;2022-12-31T12:09:08;4.30;;;2.45;;
42514;SDS011;28144;49.920;18.730;2022-12-31T12:11:38;3.50;;;2.40;;
42514;SDS011;28144;49.920;18.730;2022-12-31T12:14:21;5.65;;;2.38;;
42514;SDS011;28144;49.920;18.730;2022-12-31T12:16:53;5.55;;;2.80;;
42514;SDS011;28144;49.920;18.730;2022-12-31T12:19:20;4.18;;;2.50;;
42514;SDS011;28144;49.920;18.730;2022-12-31T12:21:49;3.13;;;1.95;;
42514;SDS011;28144;49.920;18.730;2022-12-31T12:24:19;6.18;;;3.28;;
42514;SDS011;28144;49.920;18.730;2022-12-31T12:26:47;4.85;;;2.72;;
42514;SDS011;28144;49.920;18.730;2022-12-31T12:31:39;4.13;;;3.00;;
42514;SDS011;28144;49.920;18.730;2022-12-31T12:34:05;4.72;;;2.80;;
42514;SDS011;28144;49.920;18.730;2022-12-31T12:36:46;5.30;;;2.78;;
42514;SDS011;28144;49.920;18.730;2022-12-31T12:39:23;6.60;;;3.60;;
42514;SDS011;28144;49.920;18.730;2022-12-31T12:42:00;11.32;;;3.53;;
42514;SDS011;28144;49.920;18.730;2022-12-31T12:44:30;6.40;;;3.35;;
42514;SDS011;28144;49.920;18.730;2022-12-31T12:46:56;5.10;;;3.37;;
42514;SDS011;28144;49.920;18.730;2022-12-31T12:49:24;4.72;;;3.28;;
42514;SDS011;28144;49.920;18.730;2022-12-31T12:57:33;5.65;;;3.63;;
42514;SDS011;28144;49.920;18.730;2022-12-31T13:10:48;6.50;;;3.10;;
42514;SDS011;28144;49.920;18.730;2022-12-31T13:24:44;14.05;;;7.15;;
42514;SDS011;28144;49.920;18.730;2022-12-31T13:26:58;15.07;;;7.63;;
42514;SDS011;28144;49.920;18.730;2022-12-31T13:29:29;16.30;;;7.78;;
42514;SDS011;28144;49.920;18.730;2022-12-31T13:32:00;15.05;;;7.75;;
42514;SDS011;28144;49.920;18.730;2022-12-31T13:34:29;13.68;;;7.65;;
42514;SDS011;28144;49.920;18.730;2022-12-31T13:37:00;14.13;;;7.03;;
42514;SDS011;28144;49.920;18.730;2022-12-31T13:39:30;17.83;;;7.10;;
42514;SDS011;28144;49.920;18.730;2022-12-31T13:42:08;15.65;;;6.75;;
42514;SDS011;28144;49.920;18.730;2022-12-31T13:47:29;8.32;;;4.45;;
42514;SDS011;28144;49.920;18.730;2022-12-31T13:50:00;7.93;;;4.40;;
42514;SDS011;28144;49.920;18.730;2022-12-31T13:52:49;9.30;;;3.95;;
42514;SDS011;28144;49.920;18.730;2022-12-31T13:55:22;10.98;;;4.35;;
42514;SDS011;28144;49.920;18.730;2022-12-31T13:58:16;11.10;;;4.50;;
42514;SDS011;28144;49.920;18.730;2022-12-31T14:06:35;11.10;;;5.00;;
42514;SDS011;28144;49.920;18.730;2022-12-31T14:09:16;10.40;;;4.78;;
42514;SDS011;28144;49.920;18.730;2022-12-31T14:14:35;16.55;;;8.00;;
42514;SDS011;28144;49.920;18.730;2022-12-31T14:25:34;7.57;;;3.47;;
42514;SDS011;28144;49.920;18.730;2022-12-31T14:28:03;6.35;;;3.03;;
42514;SDS011;28144;49.920;18.730;2022-12-31T14:30:33;6.90;;;3.22;;
42514;SDS011;28144;49.920;18.730;2022-12-31T14:41:45;7.75;;;3.60;;
42514;SDS011;28144;49.920;18.730;2022-12-31T14:44:26;7.10;;;3.42;;
42514;SDS011;28144;49.920;18.730;2022-12-31T14:49:43;6.82;;;3.58;;
42514;SDS011;28144;49.920;18.730;2022-12-31T14:54:40;6.57;;;3.63;;
42514;SDS011;28144;49.920;18.730;2022-12-31T14:59:49;8.48;;;3.60;;
42514;SDS011;28144;49.920;18.730;2022-12-31T15:02:29;8.73;;;4.18;;
42514;SDS011;28144;49.920;18.730;2022-12-31T15:05:13;6.72;;;3.70;;
42514;SDS011;28144;49.920;18.730;2022-12-31T15:23:28;7.20;;;3.65;;
42514;SDS011;28144;49.920;18.730;2022-12-31T15:26:00;10.63;;;4.90;;
42514;SDS011;28144;49.920;18.730;2022-12-31T15:28:31;10.23;;;4.80;;
42514;SDS011;28144;49.920;18.730;2022-12-31T15:33:38;9.88;;;5.10;;
42514;SDS011;28144;49.920;18.730;2022-12-31T15:36:12;10.90;;;5.70;;
42514;SDS011;28144;49.920;18.730;2022-12-31T15:38:44;11.82;;;6.35;;
42514;SDS011;28144;49.920;18.730;2022-12-31T15:41:11;13.68;;;6.90;;
42514;SDS011;28144;49.920;18.730;2022-12-31T15:43:39;12.30;;;6.40;;
42514;SDS011;28144;49.920;18.730;2022-12-31T15:46:19;13.23;;;7.25;;
42514;SDS011;28144;49.920;18.730;2022-12-31T15:48:51;13.45;;;6.38;;
42514;SDS011;28144;49.920;18.730;2022-12-31T15:51:27;8.82;;;4.63;;
42514;SDS011;28144;49.920;18.730;2022-12-31T15:53:55;6.93;;;4.22;;
42514;SDS011;28144;49.920;18.730;2022-12-31T15:59:01;8.32;;;4.03;;
42514;SDS011;28144;49.920;18.730;2022-12-31T16:01:32;6.32;;;3.75;;
42514;SDS011;28144;49.920;18.730;2022-12-31T16:04:01;6.60;;;4.45;;
42514;SDS011;28144;49.920;18.730;2022-12-31T16:06:34;7.20;;;3.88;;
42514;SDS011;28144;49.920;18.730;2022-12-31T16:09:01;8.20;;;4.75;;
42514;SDS011;28144;49.920;18.730;2022-12-31T16:11:28;6.82;;;4.20;;
42514;SDS011;28144;49.920;18.730;2022-12-31T16:16:27;9.13;;;4.72;;
42514;SDS011;28144;49.920;18.730;2022-12-31T16:18:56;10.23;;;5.50;;
42514;SDS011;28144;49.920;18.730;2022-12-31T16:23:59;13.10;;;6.05;;
42514;SDS011;28144;49.920;18.730;2022-12-31T16:29:26;10.32;;;5.78;;
42514;SDS011;28144;49.920;18.730;2022-12-31T16:31:52;13.00;;;6.77;;
42514;SDS011;28144;49.920;18.730;2022-12-31T16:34:19;12.63;;;6.65;;
42514;SDS011;28144;49.920;18.730;2022-12-31T16:37:00;13.73;;;6.60;;
42514;SDS011;28144;49.920;18.730;2022-12-31T16:39:35;9.93;;;5.90;;
42514;SDS011;28144;49.920;18.730;2022-12-31T16:44:41;13.73;;;7.68;;
42514;SDS011;28144;49.920;18.730;2022-12-31T16:47:07;15.60;;;7.93;;
42514;SDS011;28144;49.920;18.730;2022-12-31T16:49:35;14.15;;;7.50;;
42514;SDS011;28144;49.920;18.730;2022-12-31T16:52:03;16.10;;;8.70;;
42514;SDS011;28144;49.920;18.730;2022-12-31T16:54:36;17.27;;;8.82;;
42514;SDS011;28144;49.920;18.730;2022-12-31T16:57:03;21.10;;;9.98;;
42514;SDS011;28144;49.920;18.730;2022-12-31T16:59:32;50.63;;;18.38;;
42514;SDS011;28144;49.920;18.730;2022-12-31T17:02:17;29.88;;;12.50;;
42514;SDS011;28144;49.920;18.730;2022-12-31T17:04:46;16.33;;;8.73;;
42514;SDS011;28144;49.920;18.730;2022-12-31T17:07:55;22.75;;;11.32;;
42514;SDS011;28144;49.920;18.730;2022-12-31T17:12:33;251.00;;;73.75;;
42514;SDS011;28144;49.920;18.730;2022-12-31T17:15:01;137.38;;;42.47;;
42514;SDS011;28144;49.920;18.730;2022-12-31T17:17:30;97.05;;;32.58;;
42514;SDS011;28144;49.920;18.730;2022-12-31T17:20:04;123.38;;;40.30;;
42514;SDS011;28144;49.920;18.730;2022-12-31T17:22:40;101.25;;;34.58;;
42514;SDS011;28144;49.920;18.730;2022-12-31T17:25:19;78.35;;;29.25;;
42514;SDS011;28144;49.920;18.730;2022-12-31T17:33:02;23.27;;;10.88;;
42514;SDS011;28144;49.920;18.730;2022-12-31T17:35:30;18.65;;;8.35;;
42514;SDS011;28144;49.920;18.730;2022-12-31T17:40:46;18.45;;;7.95;;
42514;SDS011;28144;49.920;18.730;2022-12-31T17:43:13;16.75;;;8.10;;
42514;SDS011;28144;49.920;18.730;2022-12-31T17:45:41;14.70;;;8.05;;
42514;SDS011;28144;49.920;18.730;2022-12-31T17:48:14;21.02;;;9.00;;
42514;SDS011;28144;49.920;18.730;2022-12-31T17:50:57;22.88;;;9.27;;
42514;SDS011;28144;49.920;18.730;2022-12-31T17:53:24;22.85;;;9.60;;
42514;SDS011;28144;49.920;18.730;2022-12-31T17:55:51;21.88;;;9.15;;
42514;SDS011;28144;49.920;18.730;2022-12-31T18:00:54;20.02;;;8.65;;
42514;SDS011;28144;49.920;18.730;2022-12-31T18:03:20;21.30;;;9.23;;
42514;SDS011;28144;49.920;18.730;2022-12-31T18:05:46;16.77;;;7.60;;
42514;SDS011;28144;49.920;18.730;2022-12-31T18:08:12;16.70;;;8.10;;
42514;SDS011;28144;49.920;18.730;2022-12-31T18:10:39;16.13;;;7.35;;
42514;SDS011;28144;49.920;18.730;2022-12-31T18:13:06;14.55;;;6.43;;
42514;SDS011;28144;49.920;18.730;2022-12-31T18:15:38;14.77;;;6.20;;
42514;SDS011;28144;49.920;18.730;2022-12-31T18:20:42;11.60;;;5.53;;
42514;SDS011;28144;49.920;18.730;2022-12-31T18:23:30;15.10;;;7.07;;
42514;SDS011;28144;49.920;18.730;2022-12-31T18:26:02;12.82;;;5.25;;
42514;SDS011;28144;49.920;18.730;2022-12-31T18:28:28;12.13;;;5.57;;
42514;SDS011;28144;49.920;18.730;2022-12-31T18:30:54;11.80;;;5.70;;
42514;SDS011;28144;49.920;18.730;2022-12-31T18:33:20;14.47;;;6.73;;
42514;SDS011;28144;49.920;18.730;2022-12-31T18:35:50;12.70;;;5.32;;
42514;SDS011;28144;49.920;18.730;2022-12-31T18:38:17;11.13;;;5.95;;
42514;SDS011;28144;49.920;18.730;2022-12-31T18:40:49;18.42;;;7.68;;
42514;SDS011;28144;49.920;18.730;2022-12-31T18:43:18;23.05;;;9.13;;
42514;SDS011;28144;49.920;18.730;2022-12-31T18:45:45;22.58;;;8.50;;
42514;SDS011;28144;49.920;18.730;2022-12-31T18:48:11;20.70;;;8.57;;
42514;SDS011;28144;49.920;18.730;2022-12-31T18:53:03;26.02;;;9.75;;
42514;SDS011;28144;49.920;18.730;2022-12-31T18:55:35;28.38;;;10.35;;
42514;SDS011;28144;49.920;18.730;2022-12-31T18:58:02;27.55;;;9.95;;
42514;SDS011;28144;49.920;18.730;2022-12-31T19:00:28;28.55;;;10.70;;
42514;SDS011;28144;49.920;18.730;2022-12-31T19:02:54;21.33;;;9.63;;
42514;SDS011;28144;49.920;18.730;2022-12-31T19:05:21;22.07;;;9.37;;
42514;SDS011;28144;49.920;18.730;2022-12-31T19:07:47;17.67;;;7.90;;
42514;SDS011;28144;49.920;18.730;2022-12-31T19:10:13;19.43;;;8.23;;
42514;SDS011;28144;49.920;18.730;2022-12-31T19:12:39;17.25;;;8.13;;
42514;SDS011;28144;49.920;18.730;2022-12-31T19:15:11;19.07;;;9.00;;
42514;SDS011;28144;49.920;18.730;2022-12-31T19:17:47;17.02;;;8.93;;
42514;SDS011;28144;49.920;18.730;2022-12-31T19:20:13;17.50;;;9.27;;
42514;SDS011;28144;49.920;18.730;2022-12-31T19:22:39;19.67;;;9.47;;
42514;SDS011;28144;49.920;18.730;2022-12-31T19:25:16;20.30;;;9.63;;
42514;SDS011;28144;49.920;18.730;2022-12-31T19:27:49;19.10;;;8.90;;
42514;SDS011;28144;49.920;18.730;2022-12-31T19:30:16;19.45;;;10.05;;
42514;SDS011;28144;49.920;18.730;2022-12-31T19:32:45;19.65;;;9.85;;
42514;SDS011;28144;49.920;18.730;2022-12-31T19:38:00;17.58;;;8.88;;
42514;SDS011;28144;49.920;18.730;2022-12-31T19:40:27;19.27;;;9.53;;
42514;SDS011;28144;49.920;18.730;2022-12-31T19:42:53;16.30;;;8.75;;
42514;SDS011;28144;49.920;18.730;2022-12-31T19:45:25;17.65;;;9.02;;
42514;SDS011;28144;49.920;18.730;2022-12-31T19:47:52;19.65;;;9.32;;